createdAt,value
2022-10-01T00:02:07.754Z,64.40
2022-10-01T00:04:36.414Z,64.40
2022-10-01T00:07:07.133Z,64.50
2022-10-01T00:09:35.119Z,64.60
2022-10-01T00:12:03.339Z,65.20
2022-10-01T00:14:31.270Z,65.10
2022-10-01T00:17:00.607Z,64.60
2022-10-01T00:19:28.592Z,64.40
2022-10-01T00:21:56.502Z,64.20
2022-10-01T00:24:24.583Z,64.40
2022-10-01T00:26:53.124Z,64.60
2022-10-01T00:29:21.021Z,64.40
2022-10-01T00:31:49.076Z,64.40
2022-10-01T00:34:18.368Z,64.30
2022-10-01T00:36:46.320Z,64.50
2022-10-01T00:39:14.309Z,65.10
2022-10-01T00:41:42.279Z,64.90
2022-10-01T00:44:32.027Z,64.70
2022-10-01T00:47:03.169Z,64.50
2022-10-01T00:49:33.475Z,64.60
2022-10-01T00:52:02.702Z,65.10
2022-10-01T00:54:32.772Z,65.00
2022-10-01T00:57:00.969Z,64.60
2022-10-01T00:59:28.908Z,64.10
2022-10-01T01:01:56.814Z,63.80
2022-10-01T01:04:24.812Z,63.60
2022-10-01T01:06:57.721Z,63.50
2022-10-01T01:09:26.680Z,63.60
2022-10-01T01:11:57.804Z,63.90
2022-10-01T01:14:28.164Z,64.10
2022-10-01T01:16:58.614Z,64.60
2022-10-01T01:19:34.031Z,64.40
2022-10-01T01:22:04.203Z,64.40
2022-10-01T01:24:39.255Z,64.30
2022-10-01T01:27:19.503Z,64.50
2022-10-01T01:29:51.891Z,65.00
2022-10-01T01:32:22.441Z,64.90
2022-10-01T01:34:51.260Z,64.50
2022-10-01T01:37:20.300Z,64.30
2022-10-01T01:39:51.261Z,64.10
2022-10-01T01:42:21.251Z,64.30
2022-10-01T01:44:51.009Z,64.40
2022-10-01T01:47:21.414Z,64.30
2022-10-01T01:49:50.534Z,64.20
2022-10-01T01:52:18.539Z,64.20
2022-10-01T01:54:47.667Z,64.30
2022-10-01T01:57:15.583Z,64.90
2022-10-01T01:59:44.093Z,64.70
2022-10-01T02:02:14.925Z,64.60
2022-10-01T02:04:44.216Z,64.60
2022-10-01T02:07:28.712Z,64.50
2022-10-01T02:10:02.404Z,65.00
2022-10-01T02:12:37.141Z,65.10
2022-10-01T02:15:08.984Z,64.80
2022-10-01T02:17:41.841Z,64.40
2022-10-01T02:20:11.995Z,63.80
2022-10-01T02:22:43.150Z,63.60
2022-10-01T02:25:11.073Z,63.50
2022-10-01T02:27:41.078Z,63.50
2022-10-01T02:30:09.862Z,63.80
2022-10-01T02:32:40.019Z,64.00
2022-10-01T02:35:08.998Z,64.60
2022-10-01T02:37:37.040Z,64.40
2022-10-01T02:40:05.641Z,64.40
2022-10-01T02:42:34.375Z,64.40
2022-10-01T02:45:02.629Z,64.50
2022-10-01T02:47:34.124Z,64.60
2022-10-01T02:50:03.425Z,65.00
2022-10-01T02:52:33.778Z,64.70
2022-10-01T02:55:03.496Z,64.30
2022-10-01T02:57:30.485Z,64.20
2022-10-01T02:59:59.861Z,64.00
2022-10-01T03:02:28.476Z,64.40
2022-10-01T03:04:56.676Z,64.40
2022-10-01T03:07:25.989Z,64.30
2022-10-01T03:09:53.851Z,64.10
2022-10-01T03:12:21.782Z,64.30
2022-10-01T03:14:49.653Z,64.40
2022-10-01T03:17:17.665Z,64.90
2022-10-01T03:19:45.584Z,64.50
2022-10-01T03:22:18.093Z,64.50
2022-10-01T03:24:47.307Z,64.50
2022-10-01T03:27:15.224Z,64.60
2022-10-01T03:29:43.144Z,65.10
2022-10-01T03:32:11.124Z,65.00
2022-10-01T03:34:39.055Z,64.80
2022-10-01T03:37:07.045Z,64.80
2022-10-01T03:39:34.941Z,64.70
2022-10-01T03:42:05.750Z,64.70
2022-10-01T03:44:33.729Z,65.90
2022-10-01T03:47:01.656Z,65.10
2022-10-01T03:49:29.618Z,64.70
2022-10-01T03:51:57.519Z,64.40
2022-10-01T03:54:25.477Z,63.80
2022-10-01T03:56:53.344Z,63.50
2022-10-01T03:59:22.582Z,63.50
2022-10-01T04:01:50.569Z,63.70
2022-10-01T04:04:18.561Z,63.80
2022-10-01T04:06:46.424Z,63.90
2022-10-01T04:09:14.300Z,65.20
2022-10-01T04:11:42.170Z,64.40
2022-10-01T04:14:10.046Z,64.30
2022-10-01T04:16:39.533Z,64.30
2022-10-01T04:19:07.466Z,64.30
2022-10-01T04:21:36.804Z,64.60
2022-10-01T04:24:05.538Z,64.80
2022-10-01T04:26:33.395Z,64.70
2022-10-01T04:29:01.245Z,64.60
2022-10-01T04:31:34.858Z,64.50
2022-10-01T04:34:04.787Z,64.50
2022-10-01T04:36:32.662Z,65.00
2022-10-01T04:39:02.505Z,64.90
2022-10-01T04:41:31.764Z,64.60
2022-10-01T04:44:00.544Z,64.20
2022-10-01T04:46:29.338Z,63.80
2022-10-01T04:48:57.269Z,63.50
2022-10-01T04:51:26.469Z,63.50
2022-10-01T04:53:54.397Z,63.60
2022-10-01T04:56:22.241Z,63.80
2022-10-01T04:58:50.119Z,64.70
2022-10-01T05:01:18.032Z,64.50
2022-10-01T05:03:46.607Z,64.30
2022-10-01T05:06:14.488Z,64.40
2022-10-01T05:08:43.738Z,64.40
2022-10-01T05:11:11.608Z,64.40
2022-10-01T05:13:39.559Z,65.70
2022-10-01T05:16:07.749Z,64.80
2022-10-01T05:18:35.636Z,64.70
2022-10-01T05:21:05.947Z,64.60
2022-10-01T05:23:33.812Z,64.60
2022-10-01T05:26:04.203Z,64.70
2022-10-01T05:28:32.181Z,65.10
2022-10-01T05:31:00.944Z,65.10
2022-10-01T05:33:28.949Z,64.80
2022-10-01T05:35:57.015Z,64.30
2022-10-01T05:38:24.974Z,63.80
2022-10-01T05:40:52.957Z,63.90
2022-10-01T05:43:22.193Z,63.70
2022-10-01T05:45:51.358Z,63.70
2022-10-01T05:48:19.295Z,63.80
2022-10-01T05:50:47.179Z,64.70
2022-10-01T05:53:15.986Z,64.50
2022-10-01T05:55:44.136Z,64.30
2022-10-01T05:58:12.917Z,64.30
2022-10-01T06:00:42.963Z,64.30
2022-10-01T06:03:12.658Z,64.20
2022-10-01T06:05:40.850Z,64.80
2022-10-01T06:08:09.619Z,64.60
2022-10-01T06:10:37.531Z,64.50
2022-10-01T06:13:05.868Z,64.40
2022-10-01T06:15:37.311Z,64.40
2022-10-01T06:18:07.257Z,64.50
2022-10-01T06:20:35.304Z,64.60
2022-10-01T06:23:05.737Z,64.60
2022-10-01T06:25:35.113Z,64.60
2022-10-01T06:28:03.487Z,64.70
2022-10-01T06:30:31.706Z,64.80
2022-10-01T06:33:01.969Z,64.80
2022-10-01T06:35:31.240Z,64.80
2022-10-01T06:37:59.160Z,64.80
2022-10-01T06:40:27.141Z,65.30
2022-10-01T06:42:58.353Z,65.50
2022-10-01T06:45:26.412Z,65.30
2022-10-01T06:47:57.880Z,64.70
2022-10-01T06:50:26.007Z,64.10
2022-10-01T06:52:54.811Z,63.70
2022-10-01T06:55:23.684Z,63.00
2022-10-01T06:57:55.226Z,62.40
2022-10-01T07:00:23.201Z,61.80
2022-10-01T07:02:51.129Z,61.50
2022-10-01T07:05:19.213Z,61.20
2022-10-01T07:07:48.293Z,61.10
2022-10-01T07:10:20.834Z,60.80
2022-10-01T07:12:49.893Z,60.70
2022-10-01T07:15:18.309Z,60.70
2022-10-01T07:17:46.979Z,60.80
2022-10-01T07:20:17.600Z,61.20
2022-10-01T07:22:45.637Z,61.60
2022-10-01T07:25:13.601Z,61.90
2022-10-01T07:27:42.848Z,62.10
2022-10-01T07:30:11.671Z,62.30
2022-10-01T07:32:39.563Z,62.60
2022-10-01T07:35:08.980Z,63.30
2022-10-01T07:37:37.060Z,63.50
2022-10-01T07:40:07.478Z,63.50
2022-10-01T07:42:35.788Z,63.40
2022-10-01T07:45:06.446Z,63.60
2022-10-01T07:47:34.313Z,64.10
2022-10-01T07:50:02.146Z,64.20
2022-10-01T07:52:30.027Z,64.00
2022-10-01T07:54:58.072Z,63.50
2022-10-01T07:57:25.971Z,63.10
2022-10-01T07:59:56.066Z,63.00
2022-10-01T08:02:25.519Z,63.20
2022-10-01T08:05:11.052Z,63.10
2022-10-01T08:07:38.912Z,63.30
2022-10-01T08:10:07.459Z,63.90
2022-10-01T08:12:35.656Z,64.00
2022-10-01T08:15:03.689Z,63.80
2022-10-01T08:17:32.952Z,63.90
2022-10-01T08:20:01.339Z,64.00
2022-10-01T08:22:29.223Z,64.60
2022-10-01T08:24:57.060Z,64.50
2022-10-01T08:27:25.219Z,64.20
2022-10-01T08:29:53.421Z,63.80
2022-10-01T08:32:22.019Z,63.70
2022-10-01T08:34:56.514Z,63.50
2022-10-01T08:37:28.157Z,63.90
2022-10-01T08:39:56.201Z,63.90
2022-10-01T08:42:40.265Z,63.80
2022-10-01T08:45:12.586Z,63.80
2022-10-01T08:47:41.328Z,63.90
2022-10-01T08:50:14.802Z,64.60
2022-10-01T08:52:43.945Z,64.40
2022-10-01T08:55:12.834Z,64.30
2022-10-01T08:57:42.309Z,64.30
2022-10-01T09:00:12.834Z,64.30
2022-10-01T09:02:41.341Z,64.90
2022-10-01T09:05:17.593Z,64.90
2022-10-01T09:07:52.496Z,64.50
2022-10-01T09:10:28.766Z,64.10
2022-10-01T09:13:07.807Z,63.70
2022-10-01T09:15:38.223Z,63.50
2022-10-01T09:18:11.795Z,63.50
2022-10-01T09:20:42.768Z,63.60
2022-10-01T09:23:29.442Z,63.70
2022-10-01T09:25:59.523Z,64.30
2022-10-01T09:28:29.803Z,64.50
2022-10-01T09:30:58.722Z,64.30
2022-10-01T09:33:30.774Z,64.30
2022-10-01T09:36:05.821Z,64.30
2022-10-01T09:38:35.303Z,64.80
2022-10-01T09:41:03.980Z,64.90
2022-10-01T09:43:32.999Z,64.60
2022-10-01T09:46:00.949Z,64.50
2022-10-01T09:48:32.453Z,64.50
2022-10-01T09:51:04.765Z,64.70
2022-10-01T09:53:36.185Z,65.30
2022-10-01T09:56:06.690Z,65.00
2022-10-01T09:58:35.035Z,64.60
2022-10-01T10:01:04.029Z,64.20
2022-10-01T10:03:32.404Z,64.00
2022-10-01T10:06:01.949Z,63.90
2022-10-01T10:08:31.318Z,64.20
2022-10-01T10:11:00.573Z,64.20
2022-10-01T10:13:35.237Z,64.00
2022-10-01T10:16:10.703Z,64.00
2022-10-01T10:18:39.749Z,64.10
2022-10-01T10:21:15.049Z,64.70
2022-10-01T10:23:50.433Z,64.60
2022-10-01T10:26:22.599Z,64.60
2022-10-01T10:28:50.509Z,64.40
2022-10-01T10:31:21.193Z,64.40
2022-10-01T10:33:51.077Z,64.90
2022-10-01T10:36:20.973Z,65.20
2022-10-01T10:38:50.893Z,64.80
2022-10-01T10:41:21.202Z,64.50
2022-10-01T10:43:49.882Z,64.00
2022-10-01T10:46:23.600Z,63.90
2022-10-01T10:48:51.979Z,63.70
2022-10-01T10:51:21.192Z,63.70
2022-10-01T10:53:49.443Z,63.80
2022-10-01T10:56:22.630Z,64.00
2022-10-01T10:58:50.547Z,64.70
2022-10-01T11:01:20.191Z,64.60
2022-10-01T11:03:49.387Z,64.50
2022-10-01T11:06:18.507Z,64.50
2022-10-01T11:08:57.207Z,64.50
2022-10-01T11:11:43.267Z,65.20
2022-10-01T11:14:25.640Z,65.00
2022-10-01T11:17:07.761Z,64.50
2022-10-01T11:19:45.243Z,64.30
2022-10-01T11:22:29.773Z,64.00
2022-10-01T11:25:18.369Z,64.40
2022-10-01T11:27:49.805Z,64.40
2022-10-01T11:30:20.933Z,64.30
2022-10-01T11:32:51.526Z,64.20
2022-10-01T11:35:28.179Z,65.10
2022-10-01T11:38:07.871Z,64.90
2022-10-01T11:40:40.359Z,64.90
2022-10-01T11:43:12.833Z,64.70
2022-10-01T11:45:42.774Z,64.60
2022-10-01T11:48:12.541Z,64.70
2022-10-01T11:50:42.534Z,65.00
2022-10-01T11:53:12.839Z,65.20
2022-10-01T11:56:01.044Z,64.90
2022-10-01T11:58:49.523Z,64.50
2022-10-01T12:01:19.554Z,64.30
2022-10-01T12:03:53.620Z,64.30
2022-10-01T12:06:34.251Z,64.70
2022-10-01T12:09:05.793Z,64.60
2022-10-01T12:11:37.824Z,64.30
2022-10-01T12:14:10.050Z,64.40
2022-10-01T12:16:42.979Z,64.50
2022-10-01T12:19:14.277Z,65.10
2022-10-01T12:21:43.839Z,65.10
2022-10-01T12:24:13.582Z,65.10
2022-10-01T12:26:47.132Z,64.70
2022-10-01T12:29:18.101Z,64.70
2022-10-01T12:31:50.023Z,65.10
2022-10-01T12:34:22.353Z,65.40
2022-10-01T12:36:55.757Z,65.10
2022-10-01T12:39:30.877Z,64.70
2022-10-01T12:42:06.929Z,64.20
2022-10-01T12:44:41.184Z,64.00
2022-10-01T12:47:21.665Z,63.90
2022-10-01T12:49:51.208Z,64.00
2022-10-01T12:52:23.129Z,64.10
2022-10-01T12:54:59.873Z,64.30
2022-10-01T12:57:40.274Z,65.00
2022-10-01T13:00:12.601Z,64.80
2022-10-01T13:02:55.102Z,64.70
2022-10-01T13:05:28.020Z,64.60
2022-10-01T13:08:18.055Z,64.80
2022-10-01T13:11:08.115Z,65.30
2022-10-01T13:13:38.517Z,65.40
2022-10-01T13:16:09.939Z,65.00
2022-10-01T13:18:45.361Z,64.60
2022-10-01T13:21:15.774Z,64.40
2022-10-01T13:23:47.113Z,64.30
2022-10-01T13:26:17.411Z,64.90
2022-10-01T13:28:56.302Z,64.60
2022-10-01T13:31:34.800Z,64.60
2022-10-01T13:34:06.159Z,64.50
2022-10-01T13:36:38.409Z,64.60
2022-10-01T13:39:08.625Z,65.90
2022-10-01T13:44:28.186Z,64.90
2022-10-01T13:47:02.492Z,64.90
2022-10-01T13:49:31.454Z,65.00
2022-10-01T13:51:59.479Z,65.50
2022-10-01T13:54:31.023Z,65.60
2022-10-01T13:57:08.626Z,65.30
2022-10-01T13:59:38.879Z,64.80
2022-10-01T14:02:30.457Z,64.30
2022-10-01T14:05:03.357Z,64.30
2022-10-01T14:07:33.798Z,64.20
2022-10-01T14:10:01.653Z,64.30
2022-10-01T14:12:49.463Z,64.40
2022-10-01T14:15:37.211Z,64.80
2022-10-01T14:18:09.033Z,65.10
2022-10-01T14:20:43.680Z,65.00
2022-10-01T14:23:13.672Z,64.90
2022-10-01T14:25:45.139Z,65.00
2022-10-01T14:28:32.142Z,65.40
2022-10-01T14:31:05.794Z,65.60
2022-10-01T14:34:07.823Z,65.30
2022-10-01T14:36:37.455Z,65.10
2022-10-01T14:39:12.387Z,65.20
2022-10-01T14:41:40.343Z,65.30
2022-10-01T14:44:22.886Z,65.80
2022-10-01T14:46:52.544Z,65.50
2022-10-01T14:49:25.754Z,65.10
2022-10-01T14:51:56.275Z,64.60
2022-10-01T14:54:24.364Z,64.20
2022-10-01T14:56:52.455Z,64.00
2022-10-01T14:59:23.881Z,64.00
2022-10-01T15:02:00.880Z,64.20
2022-10-01T15:04:28.920Z,64.40
2022-10-01T15:07:04.603Z,64.90
2022-10-01T15:09:34.215Z,65.10
2022-10-01T15:12:02.490Z,64.90
2022-10-01T15:14:31.660Z,64.80
2022-10-01T15:17:03.184Z,65.00
2022-10-01T15:19:31.148Z,65.00
2022-10-01T15:21:59.956Z,65.70
2022-10-01T15:24:37.882Z,65.60
2022-10-01T15:27:07.045Z,65.10
2022-10-01T15:29:36.122Z,64.80
2022-10-01T15:32:05.851Z,64.70
2022-10-01T15:34:33.775Z,64.70
2022-10-01T15:37:01.843Z,65.20
2022-10-01T15:39:31.658Z,65.00
2022-10-01T15:42:00.278Z,64.80
2022-10-01T15:44:46.276Z,64.80
2022-10-01T15:47:34.801Z,64.90
2022-10-01T15:50:21.219Z,65.60
2022-10-01T15:52:55.701Z,65.50
2022-10-01T15:55:28.948Z,65.20
2022-10-01T15:57:57.861Z,65.20
2022-10-01T16:00:26.973Z,65.30
2022-10-01T16:02:56.789Z,65.60
2022-10-01T16:05:26.445Z,65.80
2022-10-01T16:07:56.464Z,65.50
2022-10-01T16:10:32.324Z,65.00
2022-10-01T16:13:00.210Z,64.70
2022-10-01T16:15:28.745Z,64.30
2022-10-01T16:17:58.647Z,64.30
2022-10-01T16:20:51.103Z,64.20
2022-10-01T16:23:41.254Z,64.40
2022-10-01T16:26:39.806Z,65.00
2022-10-01T16:29:23.930Z,65.30
2022-10-01T16:31:51.912Z,65.10
2022-10-01T16:34:21.885Z,65.00
2022-10-01T16:36:50.214Z,65.00
2022-10-01T16:39:18.116Z,65.10
2022-10-01T16:42:01.361Z,65.60
2022-10-01T16:44:35.356Z,65.50
2022-10-01T16:47:03.239Z,65.40
2022-10-01T16:49:32.948Z,65.20
2022-10-01T16:52:00.868Z,65.30
2022-10-01T16:54:29.420Z,65.50
2022-10-01T16:56:59.137Z,65.90
2022-10-01T16:59:27.021Z,65.60
2022-10-01T17:01:57.315Z,65.30
2022-10-01T17:04:29.228Z,64.80
2022-10-01T17:07:01.192Z,64.50
2022-10-01T17:09:29.093Z,64.20
2022-10-01T17:11:57.919Z,64.50
2022-10-01T17:14:25.904Z,64.70
2022-10-01T17:16:53.896Z,64.90
2022-10-01T17:19:21.900Z,65.40
2022-10-01T17:21:49.850Z,65.40
2022-10-01T17:24:19.084Z,65.10
2022-10-01T17:26:47.114Z,65.30
2022-10-01T17:29:15.007Z,65.40
2022-10-01T17:31:44.733Z,65.40
2022-10-01T17:34:13.062Z,65.90
2022-10-01T17:36:41.043Z,65.70
2022-10-01T17:39:08.930Z,65.60
2022-10-01T17:41:38.141Z,65.60
2022-10-01T17:44:06.044Z,65.60
2022-10-01T17:46:34.169Z,66.10
2022-10-01T17:49:02.194Z,66.20
2022-10-01T17:51:30.095Z,65.70
2022-10-01T17:53:58.223Z,65.40
2022-10-01T17:56:26.115Z,64.80
2022-10-01T17:58:55.452Z,64.70
2022-10-01T18:01:23.382Z,64.70
2022-10-01T18:03:53.642Z,64.70
2022-10-01T18:06:21.566Z,64.80
2022-10-01T18:08:56.955Z,65.20
2022-10-01T18:11:25.057Z,65.60
2022-10-01T18:13:53.016Z,65.40
2022-10-01T18:16:22.454Z,65.30
2022-10-01T18:21:43.145Z,65.60
2022-10-01T18:24:11.065Z,66.00
2022-10-01T18:26:39.208Z,65.80
2022-10-01T18:29:07.415Z,65.40
2022-10-01T18:31:37.526Z,64.80
2022-10-01T18:34:12.501Z,64.70
2022-10-01T18:36:42.959Z,64.50
2022-10-01T18:39:15.094Z,64.60
2022-10-01T18:41:43.035Z,64.80
2022-10-01T18:44:11.350Z,65.10
2022-10-01T18:46:49.886Z,65.70
2022-10-01T18:49:25.209Z,65.50
2022-10-01T18:51:59.953Z,65.40
2022-10-01T18:54:37.497Z,65.40
2022-10-01T18:57:10.239Z,65.40
2022-10-01T18:59:59.701Z,65.80
2022-10-01T19:02:59.985Z,66.10
2022-10-01T19:05:59.018Z,66.50
2022-10-01T19:08:42.527Z,65.40
2022-10-01T19:11:17.139Z,65.20
2022-10-01T19:13:49.656Z,65.60
2022-10-01T19:16:24.130Z,65.70
2022-10-01T19:19:02.800Z,65.40
2022-10-01T19:21:33.530Z,65.40
2022-10-01T19:24:20.374Z,65.30
2022-10-01T19:26:50.931Z,65.90
2022-10-01T19:29:26.590Z,66.00
2022-10-01T19:31:56.113Z,65.70
2022-10-01T19:34:28.389Z,65.60
2022-10-01T19:36:57.335Z,65.70
2022-10-01T19:39:26.625Z,65.90
2022-10-01T19:41:56.446Z,66.30
2022-10-01T19:44:26.833Z,66.00
2022-10-01T19:46:54.735Z,65.70
2022-10-01T19:49:25.242Z,65.00
2022-10-01T19:51:57.640Z,64.70
2022-10-01T19:54:28.387Z,64.60
2022-10-01T19:56:57.863Z,64.70
2022-10-01T19:59:27.798Z,64.80
2022-10-01T20:02:00.233Z,65.00
2022-10-01T20:04:34.208Z,65.60
2022-10-01T20:07:05.263Z,65.70
2022-10-01T20:09:35.890Z,65.40
2022-10-01T20:12:06.240Z,65.40
2022-10-01T20:14:59.783Z,65.40
2022-10-01T20:17:30.820Z,65.60
2022-10-01T20:20:01.722Z,66.00
2022-10-01T20:22:34.508Z,65.80
2022-10-01T20:25:07.912Z,65.60
2022-10-01T20:27:40.023Z,65.60
2022-10-01T20:30:09.737Z,65.80
2022-10-01T20:32:40.806Z,66.50
2022-10-01T20:35:18.734Z,66.10
2022-10-01T20:37:54.172Z,65.80
2022-10-01T20:40:25.036Z,65.30
2022-10-01T20:42:56.291Z,64.80
2022-10-01T20:45:26.318Z,64.60
2022-10-01T20:47:55.302Z,64.50
2022-10-01T20:50:25.661Z,64.70
2022-10-01T20:53:03.912Z,64.90
2022-10-01T20:55:38.815Z,65.10
2022-10-01T20:58:10.297Z,65.70
2022-10-01T21:00:38.307Z,65.50
2022-10-01T21:03:12.318Z,65.40
2022-10-01T21:05:42.221Z,65.50
2022-10-01T21:08:32.853Z,65.50
2022-10-01T21:11:01.297Z,66.20
2022-10-01T21:13:34.716Z,66.10
2022-10-01T21:16:04.132Z,65.80
2022-10-01T21:18:37.371Z,65.80
2022-10-01T21:21:11.634Z,65.90
2022-10-01T21:24:02.037Z,66.40
2022-10-01T21:26:36.039Z,66.40
2022-10-01T21:29:15.717Z,66.00
2022-10-01T21:31:47.458Z,65.50
2022-10-01T21:34:17.595Z,65.10
2022-10-01T21:36:53.759Z,64.80
2022-10-01T21:39:27.085Z,64.80
2022-10-01T21:41:57.528Z,64.90
2022-10-01T21:44:44.708Z,65.10
2022-10-01T21:47:15.024Z,65.50
2022-10-01T21:49:47.267Z,65.80
2022-10-01T21:52:22.561Z,65.70
2022-10-01T21:55:13.158Z,65.60
2022-10-01T21:57:51.462Z,65.60
2022-10-01T22:00:22.596Z,65.70
2022-10-01T22:03:13.151Z,66.40
2022-10-01T22:05:45.272Z,66.10
2022-10-01T22:08:25.398Z,65.60
2022-10-01T22:10:55.946Z,65.30
2022-10-01T22:13:24.772Z,65.90
2022-10-01T22:15:54.502Z,65.60
2022-10-01T22:18:38.044Z,65.60
2022-10-01T22:21:08.210Z,65.30
2022-10-01T22:23:37.694Z,65.30
2022-10-01T22:26:11.586Z,65.40
2022-10-01T22:28:40.663Z,65.80
2022-10-01T22:31:12.459Z,66.10
2022-10-01T22:33:42.927Z,65.80
2022-10-01T22:36:12.186Z,65.70
2022-10-01T22:38:43.494Z,65.70
2022-10-01T22:41:14.684Z,65.90
2022-10-01T22:43:43.036Z,66.40
2022-10-01T22:46:32.169Z,66.10
2022-10-01T22:49:02.048Z,65.60
2022-10-01T22:51:38.409Z,65.30
2022-10-01T22:54:15.151Z,65.20
2022-10-01T22:56:49.634Z,65.40
2022-10-01T22:59:20.541Z,65.40
2022-10-01T23:01:53.594Z,65.30
2022-10-01T23:04:29.423Z,65.20
2022-10-01T23:07:01.351Z,65.30
2022-10-01T23:09:33.272Z,65.50
2022-10-01T23:12:04.745Z,66.00
2022-10-01T23:14:40.181Z,65.80
2022-10-01T23:17:10.152Z,66.40
2022-10-01T23:19:43.402Z,65.60
2022-10-01T23:22:16.922Z,65.70
2022-10-01T23:24:54.690Z,66.50
2022-10-01T23:27:31.808Z,66.20
2022-10-01T23:30:09.471Z,66.00
2022-10-01T23:33:02.180Z,65.30
2022-10-01T23:35:35.050Z,65.00
2022-10-01T23:38:09.476Z,64.80
2022-10-01T23:40:39.737Z,64.80
2022-10-01T23:43:11.018Z,64.90
2022-10-01T23:45:40.707Z,65.10
2022-10-01T23:48:12.042Z,65.70
2022-10-01T23:50:42.543Z,65.90
2022-10-01T23:53:14.366Z,65.60
2022-10-01T23:56:03.790Z,65.70
2022-10-01T23:58:36.274Z,65.60
